sensor_id;sensor_type;location;lat;lon;timestamp;pressure;altitude;pressure_sealevel;temperature;humidity
52577;BME280;38469;53.562;10.048;2023-07-02T00:01:09;100129.44;;;16.36;100.00
52577;BME280;38469;53.562;10.048;2023-07-02T00:03:37;100138.53;;;16.21;100.00
52577;BME280;38469;53.562;10.048;2023-07-02T00:06:05;100142.03;;;16.18;100.00
52577;BME280;38469;53.562;10.048;2023-07-02T00:08:31;100141.66;;;16.07;100.00
52577;BME280;38469;53.562;10.048;2023-07-02T00:10:58;100140.06;;;16.06;100.00
52577;BME280;38469;53.562;10.048;2023-07-02T00:13:24;100131.31;;;16.20;100.00
52577;BME280;38469;53.562;10.048;2023-07-02T00:15:51;100129.72;;;16.07;100.00
52577;BME280;38469;53.562;10.048;2023-07-02T00:18:17;100139.22;;;16.06;100.00
52577;BME280;38469;53.562;10.048;2023-07-02T00:20:43;100152.03;;;15.83;100.00
52577;BME280;38469;53.562;10.048;2023-07-02T00:23:12;100144.81;;;15.82;100.00
52577;BME280;38469;53.562;10.048;2023-07-02T00:25:39;100140.31;;;15.77;100.00
52577;BME280;38469;53.562;10.048;2023-07-02T00:28:05;100144.47;;;15.71;100.00
52577;BME280;38469;53.562;10.048;2023-07-02T00:30:32;100138.56;;;15.85;100.00
52577;BME280;38469;53.562;10.048;2023-07-02T00:32:58;100141.59;;;15.80;100.00
52577;BME280;38469;53.562;10.048;2023-07-02T00:35:24;100140.06;;;15.94;100.00
52577;BME280;38469;53.562;10.048;2023-07-02T00:37:51;100144.97;;;15.85;100.00
52577;BME280;38469;53.562;10.048;2023-07-02T00:40:18;100150.97;;;15.87;100.00
52577;BME280;38469;53.562;10.048;2023-07-02T00:42:45;100147.28;;;15.83;100.00
52577;BME280;38469;53.562;10.048;2023-07-02T00:45:11;100149.47;;;15.90;100.00
52577;BME280;38469;53.562;10.048;2023-07-02T00:47:38;100144.47;;;15.95;100.00
52577;BME280;38469;53.562;10.048;2023-07-02T00:50:05;100141.13;;;15.90;100.00
52577;BME280;38469;53.562;10.048;2023-07-02T00:52:34;100138.31;;;15.90;100.00
52577;BME280;38469;53.562;10.048;2023-07-02T00:55:01;100140.16;;;16.10;100.00
52577;BME280;38469;53.562;10.048;2023-07-02T00:57:29;100126.69;;;16.12;100.00
52577;BME280;38469;53.562;10.048;2023-07-02T00:59:56;100132.03;;;16.17;100.00
52577;BME280;38469;53.562;10.048;2023-07-02T01:02:22;100096.91;;;15.88;100.00
52577;BME280;38469;53.562;10.048;2023-07-02T01:04:51;100124.69;;;16.24;100.00
52577;BME280;38469;53.562;10.048;2023-07-02T01:07:22;100119.16;;;16.12;100.00
52577;BME280;38469;53.562;10.048;2023-07-02T01:09:49;100126.44;;;16.29;100.00
52577;BME280;38469;53.562;10.048;2023-07-02T01:12:16;100128.31;;;16.13;100.00
52577;BME280;38469;53.562;10.048;2023-07-02T01:14:48;100131.88;;;16.25;100.00
52577;BME280;38469;53.562;10.048;2023-07-02T01:17:18;100134.03;;;16.44;100.00
52577;BME280;38469;53.562;10.048;2023-07-02T01:19:49;100123.13;;;16.39;100.00
52577;BME280;38469;53.562;10.048;2023-07-02T01:22:18;100131.19;;;16.28;100.00
52577;BME280;38469;53.562;10.048;2023-07-02T01:24:45;100129.72;;;16.07;100.00
52577;BME280;38469;53.562;10.048;2023-07-02T01:27:13;100126.91;;;16.19;100.00
52577;BME280;38469;53.562;10.048;2023-07-02T01:29:40;100132.63;;;16.10;100.00
52577;BME280;38469;53.562;10.048;2023-07-02T01:32:07;100132.28;;;16.12;100.00
52577;BME280;38469;53.562;10.048;2023-07-02T01:34:34;100120.53;;;16.18;100.00
52577;BME280;38469;53.562;10.048;2023-07-02T01:37:03;100124.59;;;16.21;100.00
52577;BME280;38469;53.562;10.048;2023-07-02T01:39:30;100109.59;;;16.25;100.00
52577;BME280;38469;53.562;10.048;2023-07-02T01:42:07;100119.84;;;16.21;100.00
52577;BME280;38469;53.562;10.048;2023-07-02T01:44:34;100121.19;;;16.40;100.00
52577;BME280;38469;53.562;10.048;2023-07-02T01:47:00;100118.06;;;16.29;100.00
52577;BME280;38469;53.562;10.048;2023-07-02T01:49:27;100122.13;;;16.31;100.00
52577;BME280;38469;53.562;10.048;2023-07-02T01:51:54;100128.09;;;16.18;100.00
52577;BME280;38469;53.562;10.048;2023-07-02T01:54:23;100121.34;;;16.19;100.00
52577;BME280;38469;53.562;10.048;2023-07-02T01:56:52;100124.59;;;16.21;100.00
52577;BME280;38469;53.562;10.048;2023-07-02T01:59:18;100130.59;;;16.35;100.00
52577;BME280;38469;53.562;10.048;2023-07-02T02:01:45;100132.13;;;16.32;100.00
52577;BME280;38469;53.562;10.048;2023-07-02T02:04:11;100130.88;;;16.18;100.00
52577;BME280;38469;53.562;10.048;2023-07-02T02:06:39;100122.16;;;16.19;100.00
52577;BME280;38469;53.562;10.048;2023-07-02T02:09:06;100113.22;;;16.14;100.00
52577;BME280;38469;53.562;10.048;2023-07-02T02:11:38;100122.53;;;16.06;100.00
52577;BME280;38469;53.562;10.048;2023-07-02T02:14:05;100122.66;;;15.97;100.00
52577;BME280;38469;53.562;10.048;2023-07-02T02:16:31;100138.09;;;15.95;100.00
52577;BME280;38469;53.562;10.048;2023-07-02T02:18:59;100137.88;;;16.00;100.00
52577;BME280;38469;53.562;10.048;2023-07-02T02:21:25;100138.31;;;16.02;100.00
52577;BME280;38469;53.562;10.048;2023-07-02T02:23:52;100139.22;;;16.06;100.00
52577;BME280;38469;53.562;10.048;2023-07-02T02:26:19;100127.88;;;15.99;100.00
52577;BME280;38469;53.562;10.048;2023-07-02T02:28:48;100141.91;;;16.02;100.00
52577;BME280;38469;53.562;10.048;2023-07-02T02:31:14;100139.63;;;15.92;100.00
52577;BME280;38469;53.562;10.048;2023-07-02T02:33:41;100138.91;;;15.95;100.00
52577;BME280;38469;53.562;10.048;2023-07-02T02:36:07;100131.63;;;15.91;100.00
52577;BME280;38469;53.562;10.048;2023-07-02T02:38:34;100124.88;;;15.80;100.00
52577;BME280;38469;53.562;10.048;2023-07-02T02:41:02;100137.97;;;15.91;100.00
52577;BME280;38469;53.562;10.048;2023-07-02T02:43:29;100127.06;;;15.86;100.00
52577;BME280;38469;53.562;10.048;2023-07-02T02:45:57;100139.50;;;15.89;100.00
52577;BME280;38469;53.562;10.048;2023-07-02T02:48:23;100149.22;;;15.95;100.00
52577;BME280;38469;53.562;10.048;2023-07-02T02:50:50;100149.91;;;16.04;100.00
52577;BME280;38469;53.562;10.048;2023-07-02T02:53:17;100138.31;;;15.90;100.00
52577;BME280;38469;53.562;10.048;2023-07-02T02:55:43;100143.06;;;15.89;100.00
52577;BME280;38469;53.562;10.048;2023-07-02T02:58:10;100144.59;;;15.99;100.00
52577;BME280;38469;53.562;10.048;2023-07-02T03:00:36;100153.19;;;15.94;100.00
52577;BME280;38469;53.562;10.048;2023-07-02T03:03:04;100145.53;;;15.79;100.00
52577;BME280;38469;53.562;10.048;2023-07-02T03:05:31;100151.44;;;15.77;100.00
52577;BME280;38469;53.562;10.048;2023-07-02T03:07:57;100152.72;;;15.92;100.00
52577;BME280;38469;53.562;10.048;2023-07-02T03:10:24;100148.06;;;15.84;100.00
52577;BME280;38469;53.562;10.048;2023-07-02T03:12:50;100152.38;;;15.81;100.00
52577;BME280;38469;53.562;10.048;2023-07-02T03:15:17;100152.13;;;15.86;100.00
52577;BME280;38469;53.562;10.048;2023-07-02T03:17:43;100153.19;;;15.70;100.00
52577;BME280;38469;53.562;10.048;2023-07-02T03:20:11;100153.41;;;15.65;100.00
52577;BME280;38469;53.562;10.048;2023-07-02T03:22:38;100150.50;;;15.73;100.00
52577;BME280;38469;53.562;10.048;2023-07-02T03:25:05;100154.72;;;15.67;100.00
52577;BME280;38469;53.562;10.048;2023-07-02T03:27:31;100149.13;;;15.67;100.00
52577;BME280;38469;53.562;10.048;2023-07-02T03:29:58;100144.59;;;15.75;100.00
52577;BME280;38469;53.562;10.048;2023-07-02T03:32:24;100148.19;;;15.87;100.00
52577;BME280;38469;53.562;10.048;2023-07-02T03:34:51;100153.28;;;15.73;100.00
52577;BME280;38469;53.562;10.048;2023-07-02T03:37:18;100146.69;;;15.66;100.00
52577;BME280;38469;53.562;10.048;2023-07-02T03:39:45;100151.69;;;15.72;100.00
52577;BME280;38469;53.562;10.048;2023-07-02T03:42:11;100146.00;;;15.69;100.00
52577;BME280;38469;53.562;10.048;2023-07-02T03:44:38;100145.66;;;15.70;100.00
52577;BME280;38469;53.562;10.048;2023-07-02T03:47:06;100124.78;;;15.52;100.00
52577;BME280;38469;53.562;10.048;2023-07-02T03:49:33;100139.63;;;15.68;100.00
52577;BME280;38469;53.562;10.048;2023-07-02T03:52:00;100142.28;;;15.77;100.00
52577;BME280;38469;53.562;10.048;2023-07-02T03:54:27;100143.19;;;15.57;100.00
52577;BME280;38469;53.562;10.048;2023-07-02T03:56:54;100157.81;;;15.66;100.00
52577;BME280;38469;53.562;10.048;2023-07-02T03:59:20;100139.50;;;15.65;100.00
52577;BME280;38469;53.562;10.048;2023-07-02T04:01:47;100153.19;;;15.70;100.00
52577;BME280;38469;53.562;10.048;2023-07-02T04:04:13;100150.97;;;15.75;100.00
52577;BME280;38469;53.562;10.048;2023-07-02T04:06:40;100158.97;;;16.01;100.00
52577;BME280;38469;53.562;10.048;2023-07-02T04:09:06;100161.91;;;15.92;100.00
52577;BME280;38469;53.562;10.048;2023-07-02T04:11:34;100168.97;;;15.78;100.00
52577;BME280;38469;53.562;10.048;2023-07-02T04:14:00;100158.97;;;15.77;100.00
52577;BME280;38469;53.562;10.048;2023-07-02T04:16:27;100160.72;;;15.81;100.00
52577;BME280;38469;53.562;10.048;2023-07-02T04:18:54;100165.00;;;16.03;100.00
52577;BME280;38469;53.562;10.048;2023-07-02T04:21:20;100160.38;;;15.83;100.00
52577;BME280;38469;53.562;10.048;2023-07-02T04:23:47;100166.88;;;15.75;100.00
52577;BME280;38469;53.562;10.048;2023-07-02T04:26:13;100161.44;;;15.90;100.00
52577;BME280;38469;53.562;10.048;2023-07-02T04:28:41;100168.47;;;16.12;100.00
52577;BME280;38469;53.562;10.048;2023-07-02T04:31:07;100161.75;;;16.01;100.00
52577;BME280;38469;53.562;10.048;2023-07-02T04:33:34;100164.66;;;16.04;100.00
52577;BME280;38469;53.562;10.048;2023-07-02T04:36:02;100161.63;;;16.09;100.00
52577;BME280;38469;53.562;10.048;2023-07-02T04:38:28;100166.97;;;16.02;100.00
52577;BME280;38469;53.562;10.048;2023-07-02T04:40:55;100164.75;;;16.08;100.00
52577;BME280;38469;53.562;10.048;2023-07-02T04:43:26;100162.94;;;16.00;100.00
52577;BME280;38469;53.562;10.048;2023-07-02T04:45:55;100170.56;;;16.15;100.00
52577;BME280;38469;53.562;10.048;2023-07-02T04:48:22;100159.44;;;16.03;100.00
52577;BME280;38469;53.562;10.048;2023-07-02T04:50:49;100165.69;;;16.12;100.00
52577;BME280;38469;53.562;10.048;2023-07-02T04:53:15;100161.53;;;16.18;100.00
52577;BME280;38469;53.562;10.048;2023-07-02T04:55:43;100160.56;;;16.26;100.00
52577;BME280;38469;53.562;10.048;2023-07-02T04:58:09;100167.47;;;16.44;100.00
52577;BME280;38469;53.562;10.048;2023-07-02T05:00:36;100161.72;;;16.13;100.00
52577;BME280;38469;53.562;10.048;2023-07-02T05:03:04;100176.25;;;16.06;100.00
52577;BME280;38469;53.562;10.048;2023-07-02T05:05:30;100175.78;;;16.04;100.00
52577;BME280;38469;53.562;10.048;2023-07-02T05:07:56;100173.34;;;16.15;100.00
52577;BME280;38469;53.562;10.048;2023-07-02T05:10:23;100181.47;;;16.08;100.00
52577;BME280;38469;53.562;10.048;2023-07-02T05:12:49;100182.16;;;16.17;100.00
52577;BME280;38469;53.562;10.048;2023-07-02T05:15:16;100177.97;;;16.47;100.00
52577;BME280;38469;53.562;10.048;2023-07-02T05:17:42;100175.16;;;16.35;100.00
52577;BME280;38469;53.562;10.048;2023-07-02T05:20:11;100167.66;;;16.23;100.00
52577;BME280;38469;53.562;10.048;2023-07-02T05:22:37;100183.16;;;16.36;100.00
52577;BME280;38469;53.562;10.048;2023-07-02T05:25:05;100187.44;;;16.46;100.00
52577;BME280;38469;53.562;10.048;2023-07-02T05:27:31;100169.56;;;16.59;100.00
52577;BME280;38469;53.562;10.048;2023-07-02T05:29:58;100163.72;;;16.64;100.00
52577;BME280;38469;53.562;10.048;2023-07-02T05:32:24;100178.81;;;16.75;100.00
52577;BME280;38469;53.562;10.048;2023-07-02T05:34:51;100182.22;;;16.69;100.00
52577;BME280;38469;53.562;10.048;2023-07-02T05:37:19;100178.41;;;16.61;100.00
52577;BME280;38469;53.562;10.048;2023-07-02T05:39:45;100183.97;;;16.61;100.00
52577;BME280;38469;53.562;10.048;2023-07-02T05:42:11;100180.09;;;16.66;100.00
52577;BME280;38469;53.562;10.048;2023-07-02T05:44:38;100180.66;;;16.83;100.00
52577;BME280;38469;53.562;10.048;2023-07-02T05:47:05;100177.50;;;16.85;100.00
52577;BME280;38469;53.562;10.048;2023-07-02T05:49:31;100183.56;;;17.02;100.00
52577;BME280;38469;53.562;10.048;2023-07-02T05:51:57;100188.28;;;16.86;100.00
52577;BME280;38469;53.562;10.048;2023-07-02T05:54:25;100192.34;;;16.89;100.00
52577;BME280;38469;53.562;10.048;2023-07-02T05:56:52;100187.53;;;17.01;100.00
52577;BME280;38469;53.562;10.048;2023-07-02T05:59:18;100190.31;;;17.01;100.00
52577;BME280;38469;53.562;10.048;2023-07-02T06:01:45;100204.63;;;17.00;100.00
52577;BME280;38469;53.562;10.048;2023-07-02T06:04:11;100196.28;;;17.15;100.00
52577;BME280;38469;53.562;10.048;2023-07-02T06:06:37;100200.50;;;17.09;100.00
52577;BME280;38469;53.562;10.048;2023-07-02T06:09:04;100188.66;;;17.12;100.00
52577;BME280;38469;53.562;10.048;2023-07-02T06:11:32;100187.00;;;17.11;100.00
52577;BME280;38469;53.562;10.048;2023-07-02T06:13:58;100186.69;;;17.28;100.00
52577;BME280;38469;53.562;10.048;2023-07-02T06:16:25;100193.69;;;17.50;100.00
52577;BME280;38469;53.562;10.048;2023-07-02T06:18:51;100196.19;;;17.55;100.00
52577;BME280;38469;53.562;10.048;2023-07-02T06:21:18;100173.94;;;17.59;100.00
52577;BME280;38469;53.562;10.048;2023-07-02T06:23:44;100192.34;;;17.60;100.00
52577;BME280;38469;53.562;10.048;2023-07-02T06:26:11;100191.59;;;17.78;100.00
52577;BME280;38469;53.562;10.048;2023-07-02T06:28:39;100182.97;;;18.33;100.00
52577;BME280;38469;53.562;10.048;2023-07-02T06:31:05;100186.81;;;18.98;96.64
52577;BME280;38469;53.562;10.048;2023-07-02T06:33:32;100190.41;;;20.05;90.70
52577;BME280;38469;53.562;10.048;2023-07-02T06:35:59;100192.47;;;19.63;87.65
52577;BME280;38469;53.562;10.048;2023-07-02T06:38:25;100197.25;;;19.40;92.15
52577;BME280;38469;53.562;10.048;2023-07-02T06:40:51;100212.63;;;19.49;91.44
52577;BME280;38469;53.562;10.048;2023-07-02T06:43:18;100206.47;;;19.21;91.01
52577;BME280;38469;53.562;10.048;2023-07-02T06:45:46;100202.53;;;19.25;91.88
52577;BME280;38469;53.562;10.048;2023-07-02T06:48:12;100204.97;;;20.40;91.67
52577;BME280;38469;53.562;10.048;2023-07-02T06:50:42;100207.59;;;20.82;84.65
52577;BME280;38469;53.562;10.048;2023-07-02T06:53:09;100209.06;;;21.35;79.10
52577;BME280;38469;53.562;10.048;2023-07-02T06:55:36;100219.44;;;22.11;70.93
52577;BME280;38469;53.562;10.048;2023-07-02T06:58:04;100227.88;;;22.11;69.58
52577;BME280;38469;53.562;10.048;2023-07-02T07:00:31;100216.69;;;21.75;72.24
52577;BME280;38469;53.562;10.048;2023-07-02T07:02:59;100231.69;;;22.33;71.04
52577;BME280;38469;53.562;10.048;2023-07-02T07:05:25;100231.56;;;22.19;69.07
52577;BME280;38469;53.562;10.048;2023-07-02T07:07:52;100238.19;;;21.57;70.58
52577;BME280;38469;53.562;10.048;2023-07-02T07:10:18;100246.06;;;21.44;72.14
52577;BME280;38469;53.562;10.048;2023-07-02T07:12:45;100239.81;;;20.95;74.35
52577;BME280;38469;53.562;10.048;2023-07-02T07:15:11;100256.88;;;20.53;77.26
52577;BME280;38469;53.562;10.048;2023-07-02T07:17:38;100244.13;;;22.32;70.30
52577;BME280;38469;53.562;10.048;2023-07-02T07:20:07;100254.56;;;22.82;65.70
52577;BME280;38469;53.562;10.048;2023-07-02T07:22:33;100254.13;;;21.46;69.21
52577;BME280;38469;53.562;10.048;2023-07-02T07:25:00;100247.63;;;20.79;75.82
52577;BME280;38469;53.562;10.048;2023-07-02T07:27:26;100237.78;;;20.36;75.64
52577;BME280;38469;53.562;10.048;2023-07-02T07:29:53;100253.63;;;20.25;73.49
52577;BME280;38469;53.562;10.048;2023-07-02T07:32:20;100247.75;;;19.66;80.47
52577;BME280;38469;53.562;10.048;2023-07-02T07:34:47;100263.56;;;19.36;83.59
52577;BME280;38469;53.562;10.048;2023-07-02T07:37:15;100263.69;;;19.04;88.55
52577;BME280;38469;53.562;10.048;2023-07-02T07:39:41;100262.50;;;18.67;90.22
52577;BME280;38469;53.562;10.048;2023-07-02T07:42:07;100266.13;;;19.06;93.30
52577;BME280;38469;53.562;10.048;2023-07-02T07:44:34;100264.44;;;19.20;92.69
52577;BME280;38469;53.562;10.048;2023-07-02T07:47:00;100266.06;;;19.02;89.76
52577;BME280;38469;53.562;10.048;2023-07-02T07:49:27;100269.50;;;19.72;86.54
52577;BME280;38469;53.562;10.048;2023-07-02T07:51:53;100272.00;;;20.00;80.30
52577;BME280;38469;53.562;10.048;2023-07-02T07:54:21;100279.88;;;19.72;72.46
52577;BME280;38469;53.562;10.048;2023-07-02T07:56:48;100269.97;;;20.19;69.76
52577;BME280;38469;53.562;10.048;2023-07-02T07:59:14;100285.22;;;20.22;70.70
52577;BME280;38469;53.562;10.048;2023-07-02T08:01:40;100277.91;;;20.66;72.26
52577;BME280;38469;53.562;10.048;2023-07-02T08:04:07;100279.66;;;20.74;69.60
52577;BME280;38469;53.562;10.048;2023-07-02T08:06:33;100270.25;;;20.93;67.86
52577;BME280;38469;53.562;10.048;2023-07-02T08:09:00;100270.25;;;20.93;67.72
52577;BME280;38469;53.562;10.048;2023-07-02T08:11:29;100282.44;;;20.48;66.66
52577;BME280;38469;53.562;10.048;2023-07-02T08:13:56;100267.38;;;19.88;68.60
52577;BME280;38469;53.562;10.048;2023-07-02T08:16:22;100279.91;;;20.40;67.29
52577;BME280;38469;53.562;10.048;2023-07-02T08:18:49;100271.06;;;20.38;63.08
52577;BME280;38469;53.562;10.048;2023-07-02T08:21:15;100274.66;;;20.90;62.30
52577;BME280;38469;53.562;10.048;2023-07-02T08:23:42;100273.38;;;20.84;61.62
52577;BME280;38469;53.562;10.048;2023-07-02T08:26:10;100270.25;;;21.19;60.53
52577;BME280;38469;53.562;10.048;2023-07-02T08:28:38;100234.69;;;19.96;61.31
52577;BME280;38469;53.562;10.048;2023-07-02T08:31:05;100266.53;;;20.07;61.70
52577;BME280;38469;53.562;10.048;2023-07-02T08:33:31;100261.53;;;19.97;60.39
52577;BME280;38469;53.562;10.048;2023-07-02T08:35:58;100270.34;;;20.44;60.11
52577;BME280;38469;53.562;10.048;2023-07-02T08:38:25;100286.69;;;20.16;61.00
52577;BME280;38469;53.562;10.048;2023-07-02T08:40:52;100292.44;;;20.23;61.18
52577;BME280;38469;53.562;10.048;2023-07-02T08:43:18;100286.09;;;20.26;58.68
52577;BME280;38469;53.562;10.048;2023-07-02T08:45:46;100283.84;;;20.61;56.76
52577;BME280;38469;53.562;10.048;2023-07-02T08:48:13;100278.44;;;20.75;56.27
52577;BME280;38469;53.562;10.048;2023-07-02T08:50:40;100274.22;;;20.88;55.10
52577;BME280;38469;53.562;10.048;2023-07-02T08:53:06;100277.50;;;20.94;55.19
52577;BME280;38469;53.562;10.048;2023-07-02T08:55:33;100272.50;;;20.80;56.92
52577;BME280;38469;53.562;10.048;2023-07-02T08:57:59;100291.28;;;21.32;53.81
52577;BME280;38469;53.562;10.048;2023-07-02T09:00:26;100276.44;;;21.31;52.11
52577;BME280;38469;53.562;10.048;2023-07-02T09:02:54;100290.84;;;21.30;54.45
52577;BME280;38469;53.562;10.048;2023-07-02T09:05:20;100300.53;;;21.33;53.04
52577;BME280;38469;53.562;10.048;2023-07-02T09:07:48;100313.94;;;21.16;51.94
52577;BME280;38469;53.562;10.048;2023-07-02T09:10:25;100316.06;;;21.23;51.93
52577;BME280;38469;53.562;10.048;2023-07-02T09:13:02;100324.59;;;21.33;52.25
52577;BME280;38469;53.562;10.048;2023-07-02T09:15:35;100325.69;;;21.55;53.31
52577;BME280;38469;53.562;10.048;2023-07-02T09:18:13;100320.84;;;21.22;52.96
52577;BME280;38469;53.562;10.048;2023-07-02T09:20:40;100337.47;;;20.82;53.89
52577;BME280;38469;53.562;10.048;2023-07-02T09:23:06;100341.44;;;20.10;55.43
52577;BME280;38469;53.562;10.048;2023-07-02T09:25:37;100346.53;;;19.63;57.41
52577;BME280;38469;53.562;10.048;2023-07-02T09:28:14;100365.81;;;19.45;58.83
52577;BME280;38469;53.562;10.048;2023-07-02T09:30:49;100375.88;;;19.15;66.20
52577;BME280;38469;53.562;10.048;2023-07-02T09:33:17;100381.69;;;18.56;75.97
52577;BME280;38469;53.562;10.048;2023-07-02T09:35:43;100397.50;;;18.05;79.50
52577;BME280;38469;53.562;10.048;2023-07-02T09:38:10;100393.50;;;17.63;85.26
52577;BME280;38469;53.562;10.048;2023-07-02T09:40:38;100391.31;;;17.45;92.58
52577;BME280;38469;53.562;10.048;2023-07-02T09:43:10;100368.78;;;17.38;94.11
52577;BME280;38469;53.562;10.048;2023-07-02T09:45:37;100373.38;;;17.46;94.27
52577;BME280;38469;53.562;10.048;2023-07-02T09:48:05;100370.50;;;17.82;94.83
52577;BME280;38469;53.562;10.048;2023-07-02T09:50:34;100367.78;;;18.44;92.38
52577;BME280;38469;53.562;10.048;2023-07-02T09:53:03;100358.91;;;18.73;85.91
52577;BME280;38469;53.562;10.048;2023-07-02T09:55:30;100356.03;;;19.58;84.31
52577;BME280;38469;53.562;10.048;2023-07-02T09:57:57;100356.50;;;20.02;75.02
52577;BME280;38469;53.562;10.048;2023-07-02T10:00:23;100368.00;;;20.16;64.81
52577;BME280;38469;53.562;10.048;2023-07-02T10:02:50;100364.59;;;20.26;62.19
52577;BME280;38469;53.562;10.048;2023-07-02T10:05:25;100363.66;;;20.18;61.23
52577;BME280;38469;53.562;10.048;2023-07-02T10:07:53;100357.00;;;19.85;60.25
52577;BME280;38469;53.562;10.048;2023-07-02T10:10:26;100369.03;;;20.08;63.45
52577;BME280;38469;53.562;10.048;2023-07-02T10:12:53;100367.44;;;20.07;61.76
52577;BME280;38469;53.562;10.048;2023-07-02T10:15:24;100369.59;;;20.36;58.54
52577;BME280;38469;53.562;10.048;2023-07-02T10:17:55;100362.53;;;20.68;61.02
52577;BME280;38469;53.562;10.048;2023-07-02T10:20:32;100369.38;;;21.19;62.49
52577;BME280;38469;53.562;10.048;2023-07-02T10:23:00;100356.94;;;20.94;60.15
52577;BME280;38469;53.562;10.048;2023-07-02T10:25:29;100378.97;;;21.18;57.96
52577;BME280;38469;53.562;10.048;2023-07-02T10:27:56;100372.38;;;21.63;57.61
52577;BME280;38469;53.562;10.048;2023-07-02T10:30:33;100362.50;;;21.47;56.42
52577;BME280;38469;53.562;10.048;2023-07-02T10:33:10;100371.66;;;21.73;56.94
52577;BME280;38469;53.562;10.048;2023-07-02T10:35:37;100367.97;;;21.66;56.37
52577;BME280;38469;53.562;10.048;2023-07-02T10:38:05;100365.50;;;21.01;56.76
52577;BME280;38469;53.562;10.048;2023-07-02T10:40:32;100375.69;;;20.64;57.19
52577;BME280;38469;53.562;10.048;2023-07-02T10:42:59;100372.28;;;20.29;58.42
52577;BME280;38469;53.562;10.048;2023-07-02T10:45:33;100378.09;;;19.79;60.23
52577;BME280;38469;53.562;10.048;2023-07-02T10:48:01;100402.56;;;19.63;63.33
52577;BME280;38469;53.562;10.048;2023-07-02T10:50:30;100387.75;;;19.08;66.87
52577;BME280;38469;53.562;10.048;2023-07-02T10:52:56;100386.44;;;18.87;69.91
52577;BME280;38469;53.562;10.048;2023-07-02T10:55:25;100392.19;;;18.78;69.94
52577;BME280;38469;53.562;10.048;2023-07-02T10:58:03;100401.50;;;18.82;72.15
52577;BME280;38469;53.562;10.048;2023-07-02T11:00:30;100403.41;;;18.78;71.33
52577;BME280;38469;53.562;10.048;2023-07-02T11:02:56;100408.91;;;18.75;72.81
52577;BME280;38469;53.562;10.048;2023-07-02T11:05:23;100395.84;;;18.63;72.69
52577;BME280;38469;53.562;10.048;2023-07-02T11:07:49;100393.06;;;18.63;70.79
52577;BME280;38469;53.562;10.048;2023-07-02T11:10:22;100389.34;;;19.09;70.10
52577;BME280;38469;53.562;10.048;2023-07-02T11:12:50;100389.59;;;19.55;68.89
52577;BME280;38469;53.562;10.048;2023-07-02T11:15:17;100400.94;;;19.81;65.04
52577;BME280;38469;53.562;10.048;2023-07-02T11:17:44;100392.53;;;19.81;64.42
52577;BME280;38469;53.562;10.048;2023-07-02T11:20:12;100397.41;;;19.84;65.04
52577;BME280;38469;53.562;10.048;2023-07-02T11:22:39;100391.47;;;20.08;62.72
52577;BME280;38469;53.562;10.048;2023-07-02T11:25:11;100371.47;;;20.28;61.30
52577;BME280;38469;53.562;10.048;2023-07-02T11:27:38;100380.94;;;20.92;60.15
52577;BME280;38469;53.562;10.048;2023-07-02T11:30:07;100381.75;;;20.92;56.96
52577;BME280;38469;53.562;10.048;2023-07-02T11:32:46;100391.25;;;20.84;58.74
52577;BME280;38469;53.562;10.048;2023-07-02T11:35:15;100394.59;;;20.93;57.36
52577;BME280;38469;53.562;10.048;2023-07-02T11:37:41;100395.16;;;20.76;56.54
52577;BME280;38469;53.562;10.048;2023-07-02T11:40:09;100394.00;;;21.03;56.58
52577;BME280;38469;53.562;10.048;2023-07-02T11:42:35;100391.75;;;21.12;54.53
52577;BME280;38469;53.562;10.048;2023-07-02T11:45:03;100388.53;;;21.14;55.61
52577;BME280;38469;53.562;10.048;2023-07-02T11:47:32;100374.31;;;21.29;53.66
52577;BME280;38469;53.562;10.048;2023-07-02T11:49:58;100400.72;;;21.55;52.58
52577;BME280;38469;53.562;10.048;2023-07-02T11:52:24;100400.47;;;21.63;53.56
52577;BME280;38469;53.562;10.048;2023-07-02T11:54:51;100391.94;;;21.26;52.81
52577;BME280;38469;53.562;10.048;2023-07-02T11:57:17;100402.31;;;21.22;53.12
52577;BME280;38469;53.562;10.048;2023-07-02T11:59:44;100387.53;;;20.99;51.97
52577;BME280;38469;53.562;10.048;2023-07-02T12:02:10;100404.56;;;21.13;53.87
52577;BME280;38469;53.562;10.048;2023-07-02T12:04:38;100404.72;;;20.98;51.64
52577;BME280;38469;53.562;10.048;2023-07-02T12:07:05;100405.94;;;20.52;51.71
52577;BME280;38469;53.562;10.048;2023-07-02T12:09:31;100420.59;;;20.42;52.60
52577;BME280;38469;53.562;10.048;2023-07-02T12:11:58;100426.28;;;20.26;54.31
52577;BME280;38469;53.562;10.048;2023-07-02T12:14:24;100440.19;;;20.00;52.61
52577;BME280;38469;53.562;10.048;2023-07-02T12:16:50;100430.34;;;20.09;53.59
52577;BME280;38469;53.562;10.048;2023-07-02T12:19:17;100441.16;;;20.49;55.33
52577;BME280;38469;53.562;10.048;2023-07-02T12:21:45;100443.63;;;20.31;55.20
52577;BME280;38469;53.562;10.048;2023-07-02T12:24:11;100434.28;;;20.69;54.82
52577;BME280;38469;53.562;10.048;2023-07-02T12:26:39;100434.44;;;20.76;56.99
52577;BME280;38469;53.562;10.048;2023-07-02T12:29:05;100423.94;;;20.73;56.31
52577;BME280;38469;53.562;10.048;2023-07-02T12:31:32;100428.06;;;20.79;56.95
52577;BME280;38469;53.562;10.048;2023-07-02T12:33:58;100424.13;;;20.84;57.83
52577;BME280;38469;53.562;10.048;2023-07-02T12:36:25;100447.44;;;20.88;57.43